Aeroporto :
LOGIN :

Iscrizione | Disclaimer

   EN    FR    IT 

 










Sommario :    VFR   VFR Marginale   IFR   IFR Intensivo   IFR Molto Intensivo
Visibilità : 
Base nubi : 
>= 8 km
>= 3000ft
5 / 8 km
1000 / 3000 ft
1500m / 5 km
500 / 1000 ft
800 / 1500m
200 / 500 ft
< 800m
< 200 ft
Simboli :   Temporali  Nebbia  Neve Forte  Precipitazioni Forti  Vento > 20 kt
SIGMETs :   Varie  Temporali  Ghiacco  Turbolenza  Onda orograficha  Ceneri Vulcaniche







- Altitudine del aeroporto : 327 ft
- Codice IATA : BHX
- Carte del aeroporto


EGBB - Birmingham

ULTIMO METAR :
  • 190020Z VRB02KT 9000 OVC015 14/13 Q1010

METARs OBSOLETI :
  • 182350Z VRB01KT 9000 BKN015 14/14 Q1010
  • 182320Z 28002KT 9999 BKN016 14/13 Q1010
  • 182250Z VRB02KT 8000 BKN020 14/14 Q1010
  • 182220Z 19002KT 9999 SCT024 14/13 Q1011
  • 182150Z 15003KT CAVOK 14/13 Q1011

TAF AMD TAF EGBB
Valido dal 19 a 00 ore il 20 a 00 ore UTC


190004Z 1900/1924 VRB03KT 9999 SCT040
PROB30 1900/1906 0300 FG BKN001
PROB30
TEMPO 1906/1912 4000 +RA BKN004
BECMG 1910/1913 29010KT
PROB30
TEMPO 1915/1918 7000 SHRA BKN014
ATIS : +44 121 780 0910
Nessun NOTAM noto per questo aeroporto.
1 SIGMET conosciuto per la FIR London (EGTT) :
 
Temporali frequenti
EGTT SIGMET 06 VALID 182300/190200 EGRR
EGTT LONDON FIR FRQ TS FCST WI N5114 W00010 - N5218 E00150 - N5217 E00240 - N5128 E00146 - N5102 E00136 - N5100 E00128 - N5040 E00128 - N5000 W00015 - N5000 W00033 - N5114 W00010 TOP FL330 MOV NE 25KT NC=



MetMap, La meteo Aeronautica in un colpo d'occhio ! - Copyright ORBIFLY Dicembre 2007 - Disclaimer

ORBIFLY MET'MAP TEAM :

Programmazione e sviluppo : Alexandra Zaïnal
Concezione e sviluppo : Baudouin d'Aumeries
Co-Programmazione e sviluppo : Marc-Olivier Méhu
Supporto tecnico e logistico : Manuel Goepfert
Aiuto per la traduzione : Arnaldo La Scala

Contatto : metmap@orbifly.com




FONTI E CREDITI :

   NOAA